sensor_id;sensor_type;location;lat;lon;timestamp;temperature;humidity
11246;DHT22;59870;50.106;8.580;2022-09-09T00:17:31;21.70;88.60
11246;DHT22;59870;50.106;8.580;2022-09-09T00:20:13;21.30;88.10
11246;DHT22;59870;50.106;8.580;2022-09-09T00:23:09;21.30;87.60
11246;DHT22;59870;50.106;8.580;2022-09-09T00:26:09;21.60;88.10
11246;DHT22;59870;50.106;8.580;2022-09-09T00:58:17;20.90;87.30
11246;DHT22;59870;50.106;8.580;2022-09-09T01:13:30;20.70;88.20
11246;DHT22;59870;50.106;8.580;2022-09-09T01:41:16;20.40;89.00
11246;DHT22;59870;50.106;8.580;2022-09-09T01:50:16;20.30;89.50
11246;DHT22;59870;50.106;8.580;2022-09-09T01:52:48;20.60;89.80
11246;DHT22;59870;50.106;8.580;2022-09-09T01:55:29;20.30;89.70
11246;DHT22;59870;50.106;8.580;2022-09-09T02:01:08;20.30;90.00
11246;DHT22;59870;50.106;8.580;2022-09-09T02:03:52;20.30;89.80
11246;DHT22;59870;50.106;8.580;2022-09-09T02:06:26;20.10;89.60
11246;DHT22;59870;50.106;8.580;2022-09-09T02:15:52;20.20;90.20
11246;DHT22;59870;50.106;8.580;2022-09-09T02:18:29;20.20;90.20
11246;DHT22;59870;50.106;8.580;2022-09-09T02:21:10;20.20;90.50
11246;DHT22;59870;50.106;8.580;2022-09-09T02:30:44;20.10;91.00
11246;DHT22;59870;50.106;8.580;2022-09-09T02:52:07;19.50;91.40
11246;DHT22;59870;50.106;8.580;2022-09-09T03:37:23;20.00;92.00
11246;DHT22;59870;50.106;8.580;2022-09-09T03:40:19;19.90;91.90
11246;DHT22;59870;50.106;8.580;2022-09-09T03:42:48;20.00;92.20
11246;DHT22;59870;50.106;8.580;2022-09-09T03:45:19;19.90;92.00
11246;DHT22;59870;50.106;8.580;2022-09-09T04:17:19;20.00;92.40
11246;DHT22;59870;50.106;8.580;2022-09-09T04:19:54;20.00;92.00
11246;DHT22;59870;50.106;8.580;2022-09-09T04:22:28;20.00;92.10
11246;DHT22;59870;50.106;8.580;2022-09-09T04:25:15;19.60;92.00
11246;DHT22;59870;50.106;8.580;2022-09-09T04:27:46;20.30;92.30
11246;DHT22;59870;50.106;8.580;2022-09-09T04:30:17;20.00;92.30
11246;DHT22;59870;50.106;8.580;2022-09-09T04:32:46;20.00;92.00
11246;DHT22;59870;50.106;8.580;2022-09-09T04:35:17;19.90;92.00
11246;DHT22;59870;50.106;8.580;2022-09-09T05:03:46;19.90;92.40
11246;DHT22;59870;50.106;8.580;2022-09-09T05:06:19;19.90;92.50
11246;DHT22;59870;50.106;8.580;2022-09-09T05:08:50;19.90;92.60
11246;DHT22;59870;50.106;8.580;2022-09-09T05:11:27;19.80;92.70
11246;DHT22;59870;50.106;8.580;2022-09-09T05:14:00;20.20;92.80
11246;DHT22;59870;50.106;8.580;2022-09-09T05:16:29;20.20;92.80
11246;DHT22;59870;50.106;8.580;2022-09-09T05:18:57;19.80;92.70
11246;DHT22;59870;50.106;8.580;2022-09-09T05:25:55;19.80;92.60
11246;DHT22;59870;50.106;8.580;2022-09-09T05:28:28;19.80;92.80
11246;DHT22;59870;50.106;8.580;2022-09-09T05:31:00;19.80;93.00
11246;DHT22;59870;50.106;8.580;2022-09-09T05:33:40;19.80;92.70
11246;DHT22;59870;50.106;8.580;2022-09-09T05:36:19;19.80;93.00
11246;DHT22;59870;50.106;8.580;2022-09-09T05:49:11;19.80;93.10
11246;DHT22;59870;50.106;8.580;2022-09-09T05:51:44;19.90;92.80
11246;DHT22;59870;50.106;8.580;2022-09-09T06:03:48;19.90;93.20
11246;DHT22;59870;50.106;8.580;2022-09-09T06:36:32;20.50;92.20
11246;DHT22;59870;50.106;8.580;2022-09-09T06:39:01;21.00;92.20
11246;DHT22;59870;50.106;8.580;2022-09-09T06:41:32;21.00;92.00
11246;DHT22;59870;50.106;8.580;2022-09-09T06:44:02;21.20;92.20
11246;DHT22;59870;50.106;8.580;2022-09-09T06:46:40;21.10;91.80
11246;DHT22;59870;50.106;8.580;2022-09-09T06:49:13;20.90;91.50
11246;DHT22;59870;50.106;8.580;2022-09-09T06:51:41;21.30;91.80
11246;DHT22;59870;50.106;8.580;2022-09-09T06:54:13;21.40;92.00
11246;DHT22;59870;50.106;8.580;2022-09-09T06:56:44;21.00;91.40
11246;DHT22;59870;50.106;8.580;2022-09-09T06:59:20;21.10;91.30
11246;DHT22;59870;50.106;8.580;2022-09-09T07:01:48;21.10;90.90
11246;DHT22;59870;50.106;8.580;2022-09-09T07:04:22;21.60;91.10
11246;DHT22;59870;50.106;8.580;2022-09-09T07:06:50;21.30;90.60
11246;DHT22;59870;50.106;8.580;2022-09-09T07:09:25;21.30;90.40
11246;DHT22;59870;50.106;8.580;2022-09-09T07:11:54;21.80;90.80
11246;DHT22;59870;50.106;8.580;2022-09-09T07:14:23;21.40;90.70
11246;DHT22;59870;50.106;8.580;2022-09-09T07:16:57;21.90;90.90
11246;DHT22;59870;50.106;8.580;2022-09-09T07:19:28;21.50;90.20
11246;DHT22;59870;50.106;8.580;2022-09-09T07:21:56;21.90;90.20
11246;DHT22;59870;50.106;8.580;2022-09-09T07:24:24;21.50;90.00
11246;DHT22;59870;50.106;8.580;2022-09-09T07:26:52;21.90;90.40
11246;DHT22;59870;50.106;8.580;2022-09-09T07:29:20;21.60;90.10
11246;DHT22;59870;50.106;8.580;2022-09-09T07:31:50;21.60;90.10
11246;DHT22;59870;50.106;8.580;2022-09-09T07:34:23;22.30;90.20
11246;DHT22;59870;50.106;8.580;2022-09-09T07:36:51;21.80;90.40
11246;DHT22;59870;50.106;8.580;2022-09-09T07:39:19;21.80;89.80
11246;DHT22;59870;50.106;8.580;2022-09-09T07:41:51;22.30;89.70
11246;DHT22;59870;50.106;8.580;2022-09-09T07:44:23;22.20;89.20
11246;DHT22;59870;50.106;8.580;2022-09-09T07:46:58;22.60;90.00
11246;DHT22;59870;50.106;8.580;2022-09-09T07:49:33;22.00;88.70
11246;DHT22;59870;50.106;8.580;2022-09-09T07:52:03;22.10;88.00
11246;DHT22;59870;50.106;8.580;2022-09-09T07:54:31;22.60;87.40
11246;DHT22;59870;50.106;8.580;2022-09-09T07:57:00;22.50;87.90
11246;DHT22;59870;50.106;8.580;2022-09-09T07:59:32;22.20;87.40
11246;DHT22;59870;50.106;8.580;2022-09-09T08:02:01;22.10;86.60
11246;DHT22;59870;50.106;8.580;2022-09-09T08:04:31;22.80;88.20
11246;DHT22;59870;50.106;8.580;2022-09-09T08:07:00;22.20;86.50
11246;DHT22;59870;50.106;8.580;2022-09-09T08:09:34;22.20;87.00
11246;DHT22;59870;50.106;8.580;2022-09-09T08:12:08;22.90;87.30
11246;DHT22;59870;50.106;8.580;2022-09-09T08:14:36;22.90;88.20
11246;DHT22;59870;50.106;8.580;2022-09-09T08:17:04;22.40;87.50
11246;DHT22;59870;50.106;8.580;2022-09-09T08:19:32;22.50;86.80
11246;DHT22;59870;50.106;8.580;2022-09-09T08:22:07;22.50;86.80
11246;DHT22;59870;50.106;8.580;2022-09-09T08:24:37;22.60;86.40
11246;DHT22;59870;50.106;8.580;2022-09-09T08:27:05;22.70;86.10
11246;DHT22;59870;50.106;8.580;2022-09-09T08:29:32;22.70;85.10
11246;DHT22;59870;50.106;8.580;2022-09-09T08:32:00;22.80;84.60
11246;DHT22;59870;50.106;8.580;2022-09-09T08:34:29;22.90;83.70
11246;DHT22;59870;50.106;8.580;2022-09-09T08:37:01;23.40;84.20
11246;DHT22;59870;50.106;8.580;2022-09-09T08:39:34;23.70;83.70
11246;DHT22;59870;50.106;8.580;2022-09-09T08:45:55;23.60;82.70
11246;DHT22;59870;50.106;8.580;2022-09-09T08:51:15;23.70;80.30
11246;DHT22;59870;50.106;8.580;2022-09-09T08:53:48;24.30;79.80
11246;DHT22;59870;50.106;8.580;2022-09-09T08:56:21;23.70;79.00
11246;DHT22;59870;50.106;8.580;2022-09-09T08:58:54;24.30;79.40
11246;DHT22;59870;50.106;8.580;2022-09-09T09:04:33;24.20;79.20
11246;DHT22;59870;50.106;8.580;2022-09-09T09:10:26;23.90;78.50
11246;DHT22;59870;50.106;8.580;2022-09-09T09:13:13;24.60;78.40
11246;DHT22;59870;50.106;8.580;2022-09-09T09:15:42;23.90;78.30
11246;DHT22;59870;50.106;8.580;2022-09-09T09:18:12;24.50;78.40
11246;DHT22;59870;50.106;8.580;2022-09-09T09:21:05;23.80;78.40
11246;DHT22;59870;50.106;8.580;2022-09-09T09:23:58;23.80;78.40
11246;DHT22;59870;50.106;8.580;2022-09-09T09:26:32;24.00;78.30
11246;DHT22;59870;50.106;8.580;2022-09-09T09:29:15;24.60;78.40
11246;DHT22;59870;50.106;8.580;2022-09-09T09:31:51;24.10;77.80
11246;DHT22;59870;50.106;8.580;2022-09-09T09:34:19;24.10;76.70
11246;DHT22;59870;50.106;8.580;2022-09-09T09:39:27;24.90;78.00
11246;DHT22;59870;50.106;8.580;2022-09-09T09:42:17;24.70;77.20
11246;DHT22;59870;50.106;8.580;2022-09-09T09:44:50;24.50;75.40
11246;DHT22;59870;50.106;8.580;2022-09-09T09:47:22;24.50;76.00
11246;DHT22;59870;50.106;8.580;2022-09-09T09:50:19;24.50;75.40
11246;DHT22;59870;50.106;8.580;2022-09-09T09:52:58;24.50;76.50
11246;DHT22;59870;50.106;8.580;2022-09-09T09:55:30;24.60;75.60
11246;DHT22;59870;50.106;8.580;2022-09-09T09:58:06;24.60;77.00
11246;DHT22;59870;50.106;8.580;2022-09-09T10:00:35;24.70;74.60
11246;DHT22;59870;50.106;8.580;2022-09-09T10:03:30;24.90;76.30
11246;DHT22;59870;50.106;8.580;2022-09-09T10:05:58;24.90;75.70
11246;DHT22;59870;50.106;8.580;2022-09-09T10:08:27;25.00;74.70
11246;DHT22;59870;50.106;8.580;2022-09-09T10:13:47;25.20;76.10
11246;DHT22;59870;50.106;8.580;2022-09-09T10:16:37;25.30;75.20
11246;DHT22;59870;50.106;8.580;2022-09-09T10:19:16;25.30;75.70
11246;DHT22;59870;50.106;8.580;2022-09-09T10:25:02;25.40;74.60
11246;DHT22;59870;50.106;8.580;2022-09-09T10:33:05;26.00;72.90
11246;DHT22;59870;50.106;8.580;2022-09-09T10:38:40;25.40;70.90
11246;DHT22;59870;50.106;8.580;2022-09-09T10:41:19;25.40;73.10
11246;DHT22;59870;50.106;8.580;2022-09-09T10:43:58;25.60;73.20
11246;DHT22;59870;50.106;8.580;2022-09-09T10:53:22;25.40;72.20
11246;DHT22;59870;50.106;8.580;2022-09-09T10:55:37;25.30;73.50
11246;DHT22;59870;50.106;8.580;2022-09-09T10:58:12;25.30;73.20
11246;DHT22;59870;50.106;8.580;2022-09-09T11:00:45;25.30;73.60
11246;DHT22;59870;50.106;8.580;2022-09-09T11:03:27;25.30;75.20
11246;DHT22;59870;50.106;8.580;2022-09-09T11:06:06;25.40;74.60
11246;DHT22;59870;50.106;8.580;2022-09-09T11:08:36;25.40;72.10
11246;DHT22;59870;50.106;8.580;2022-09-09T11:11:29;26.00;70.40
11246;DHT22;59870;50.106;8.580;2022-09-09T11:14:03;25.60;66.70
11246;DHT22;59870;50.106;8.580;2022-09-09T11:16:52;25.60;64.40
11246;DHT22;59870;50.106;8.580;2022-09-09T11:19:29;25.60;64.70
11246;DHT22;59870;50.106;8.580;2022-09-09T11:28:14;25.60;62.20
11246;DHT22;59870;50.106;8.580;2022-09-09T11:30:59;25.60;63.10
11246;DHT22;59870;50.106;8.580;2022-09-09T11:44:41;25.80;65.60
11246;DHT22;59870;50.106;8.580;2022-09-09T11:47:27;25.50;64.30
11246;DHT22;59870;50.106;8.580;2022-09-09T11:50:22;25.80;65.50
11246;DHT22;59870;50.106;8.580;2022-09-09T11:53:26;25.50;62.90
11246;DHT22;59870;50.106;8.580;2022-09-09T11:56:10;25.50;64.40
11246;DHT22;59870;50.106;8.580;2022-09-09T11:58:41;25.50;63.70
11246;DHT22;59870;50.106;8.580;2022-09-09T12:01:35;25.80;63.80
11246;DHT22;59870;50.106;8.580;2022-09-09T12:09:43;25.50;66.70
11246;DHT22;59870;50.106;8.580;2022-09-09T12:19:42;25.90;65.50
11246;DHT22;59870;50.106;8.580;2022-09-09T12:28:15;25.40;66.40
11246;DHT22;59870;50.106;8.580;2022-09-09T12:30:49;25.40;66.00
11246;DHT22;59870;50.106;8.580;2022-09-09T12:33:20;25.40;65.30
11246;DHT22;59870;50.106;8.580;2022-09-09T12:35:55;25.50;64.90
11246;DHT22;59870;50.106;8.580;2022-09-09T12:38:36;25.40;63.90
11246;DHT22;59870;50.106;8.580;2022-09-09T12:41:04;25.40;64.70
11246;DHT22;59870;50.106;8.580;2022-09-09T12:43:32;25.40;65.00
11246;DHT22;59870;50.106;8.580;2022-09-09T12:46:03;25.40;67.20
11246;DHT22;59870;50.106;8.580;2022-09-09T12:48:39;25.30;69.70
11246;DHT22;59870;50.106;8.580;2022-09-09T12:51:24;25.40;72.40
11246;DHT22;59870;50.106;8.580;2022-09-09T12:53:52;25.00;71.40
11246;DHT22;59870;50.106;8.580;2022-09-09T12:56:22;24.90;75.10
11246;DHT22;59870;50.106;8.580;2022-09-09T12:58:52;25.40;74.80
11246;DHT22;59870;50.106;8.580;2022-09-09T13:01:31;24.70;76.90
11246;DHT22;59870;50.106;8.580;2022-09-09T13:04:00;25.30;75.40
11246;DHT22;59870;50.106;8.580;2022-09-09T13:06:30;24.50;77.50
11246;DHT22;59870;50.106;8.580;2022-09-09T13:09:01;25.00;80.40
11246;DHT22;59870;50.106;8.580;2022-09-09T13:14:05;24.40;80.90
11246;DHT22;59870;50.106;8.580;2022-09-09T13:16:35;24.80;79.30
11246;DHT22;59870;50.106;8.580;2022-09-09T13:19:13;24.40;78.30
11246;DHT22;59870;50.106;8.580;2022-09-09T13:21:42;24.40;79.60
11246;DHT22;59870;50.106;8.580;2022-09-09T13:26:57;24.30;79.20
11246;DHT22;59870;50.106;8.580;2022-09-09T13:29:24;24.50;76.20
11246;DHT22;59870;50.106;8.580;2022-09-09T13:31:53;24.70;75.20
11246;DHT22;59870;50.106;8.580;2022-09-09T13:34:29;24.80;75.50
11246;DHT22;59870;50.106;8.580;2022-09-09T13:37:05;24.30;72.50
11246;DHT22;59870;50.106;8.580;2022-09-09T13:39:35;24.60;72.10
11246;DHT22;59870;50.106;8.580;2022-09-09T13:42:04;24.30;73.40
11246;DHT22;59870;50.106;8.580;2022-09-09T13:44:38;24.10;74.20
11246;DHT22;59870;50.106;8.580;2022-09-09T13:47:20;24.10;74.40
11246;DHT22;59870;50.106;8.580;2022-09-09T13:49:48;24.10;72.30
11246;DHT22;59870;50.106;8.580;2022-09-09T13:52:17;24.20;71.30
11246;DHT22;59870;50.106;8.580;2022-09-09T13:54:49;24.20;71.40
11246;DHT22;59870;50.106;8.580;2022-09-09T13:57:23;24.80;72.00
11246;DHT22;59870;50.106;8.580;2022-09-09T13:59:53;24.80;71.20
11246;DHT22;59870;50.106;8.580;2022-09-09T14:02:37;24.40;70.80
11246;DHT22;59870;50.106;8.580;2022-09-09T14:05:06;24.90;69.30
11246;DHT22;59870;50.106;8.580;2022-09-09T14:07:33;24.20;69.80
11246;DHT22;59870;50.106;8.580;2022-09-09T14:10:01;24.20;71.40
11246;DHT22;59870;50.106;8.580;2022-09-09T14:12:29;24.70;69.60
11246;DHT22;59870;50.106;8.580;2022-09-09T14:14:57;24.30;68.50
11246;DHT22;59870;50.106;8.580;2022-09-09T14:17:24;24.60;69.80
11246;DHT22;59870;50.106;8.580;2022-09-09T14:19:52;24.20;68.20
11246;DHT22;59870;50.106;8.580;2022-09-09T14:22:19;24.40;69.20
11246;DHT22;59870;50.106;8.580;2022-09-09T14:24:47;24.10;70.30
11246;DHT22;59870;50.106;8.580;2022-09-09T14:27:15;24.70;70.40
11246;DHT22;59870;50.106;8.580;2022-09-09T14:29:42;24.30;69.40
11246;DHT22;59870;50.106;8.580;2022-09-09T14:32:12;24.60;71.20
11246;DHT22;59870;50.106;8.580;2022-09-09T14:34:39;24.10;70.60
11246;DHT22;59870;50.106;8.580;2022-09-09T14:37:07;24.60;71.90
11246;DHT22;59870;50.106;8.580;2022-09-09T14:39:35;24.00;70.90
11246;DHT22;59870;50.106;8.580;2022-09-09T14:42:02;24.70;71.20
11246;DHT22;59870;50.106;8.580;2022-09-09T14:44:29;24.00;71.30
11246;DHT22;59870;50.106;8.580;2022-09-09T14:46:57;24.00;72.00
11246;DHT22;59870;50.106;8.580;2022-09-09T14:49:25;24.40;73.60
11246;DHT22;59870;50.106;8.580;2022-09-09T14:51:52;24.60;73.40
11246;DHT22;59870;50.106;8.580;2022-09-09T14:54:20;24.60;74.20
11246;DHT22;59870;50.106;8.580;2022-09-09T14:56:50;24.00;73.30
11246;DHT22;59870;50.106;8.580;2022-09-09T14:59:17;24.60;74.00
11246;DHT22;59870;50.106;8.580;2022-09-09T15:01:44;24.00;73.20
11246;DHT22;59870;50.106;8.580;2022-09-09T15:04:13;24.60;75.10
11246;DHT22;59870;50.106;8.580;2022-09-09T15:06:41;24.10;73.60
11246;DHT22;59870;50.106;8.580;2022-09-09T15:09:11;24.20;74.80
11246;DHT22;59870;50.106;8.580;2022-09-09T15:11:38;24.10;74.00
11246;DHT22;59870;50.106;8.580;2022-09-09T15:14:07;24.60;73.40
11246;DHT22;59870;50.106;8.580;2022-09-09T15:16:35;24.20;73.80
11246;DHT22;59870;50.106;8.580;2022-09-09T15:19:03;24.30;73.70
11246;DHT22;59870;50.106;8.580;2022-09-09T15:21:33;24.40;72.30
11246;DHT22;59870;50.106;8.580;2022-09-09T15:24:00;24.30;72.40
11246;DHT22;59870;50.106;8.580;2022-09-09T15:26:28;24.40;71.50
11246;DHT22;59870;50.106;8.580;2022-09-09T15:28:57;24.40;73.50
11246;DHT22;59870;50.106;8.580;2022-09-09T15:31:30;24.40;72.00
11246;DHT22;59870;50.106;8.580;2022-09-09T15:34:01;24.40;72.50
11246;DHT22;59870;50.106;8.580;2022-09-09T15:36:30;24.40;71.60
11246;DHT22;59870;50.106;8.580;2022-09-09T15:39:00;25.00;71.10
11246;DHT22;59870;50.106;8.580;2022-09-09T15:41:28;24.40;71.30
11246;DHT22;59870;50.106;8.580;2022-09-09T15:43:56;24.50;70.50
11246;DHT22;59870;50.106;8.580;2022-09-09T15:46:27;25.10;73.00
11246;DHT22;59870;50.106;8.580;2022-09-09T15:49:19;24.50;71.10
11246;DHT22;59870;50.106;8.580;2022-09-09T15:51:59;24.50;70.00
11246;DHT22;59870;50.106;8.580;2022-09-09T15:54:35;24.60;70.00
11246;DHT22;59870;50.106;8.580;2022-09-09T15:57:07;25.20;70.20
11246;DHT22;59870;50.106;8.580;2022-09-09T15:59:35;24.50;70.40
11246;DHT22;59870;50.106;8.580;2022-09-09T16:02:03;24.50;69.50
11246;DHT22;59870;50.106;8.580;2022-09-09T16:04:31;24.60;70.40
11246;DHT22;59870;50.106;8.580;2022-09-09T16:07:04;24.40;70.30
11246;DHT22;59870;50.106;8.580;2022-09-09T16:09:32;24.40;71.00
11246;DHT22;59870;50.106;8.580;2022-09-09T16:12:01;24.40;70.90
11246;DHT22;59870;50.106;8.580;2022-09-09T16:14:29;24.40;71.30
11246;DHT22;59870;50.106;8.580;2022-09-09T16:17:02;24.30;71.20
11246;DHT22;59870;50.106;8.580;2022-09-09T16:19:29;24.80;72.30
11246;DHT22;59870;50.106;8.580;2022-09-09T16:21:57;24.20;72.10
11246;DHT22;59870;50.106;8.580;2022-09-09T16:24:25;24.80;73.10
11246;DHT22;59870;50.106;8.580;2022-09-09T16:26:53;24.10;72.60
11246;DHT22;59870;50.106;8.580;2022-09-09T16:29:23;24.10;72.90
11246;DHT22;59870;50.106;8.580;2022-09-09T16:31:51;24.70;73.90
11246;DHT22;59870;50.106;8.580;2022-09-09T16:34:19;24.00;73.60
11246;DHT22;59870;50.106;8.580;2022-09-09T16:36:47;24.60;74.50
11246;DHT22;59870;50.106;8.580;2022-09-09T16:39:18;24.60;74.40
11246;DHT22;59870;50.106;8.580;2022-09-09T16:41:47;23.90;74.30
11246;DHT22;59870;50.106;8.580;2022-09-09T16:44:16;23.90;74.60
11246;DHT22;59870;50.106;8.580;2022-09-09T16:46:46;23.90;74.40
11246;DHT22;59870;50.106;8.580;2022-09-09T16:49:16;23.80;73.20
11246;DHT22;59870;50.106;8.580;2022-09-09T16:51:45;23.80;73.20
11246;DHT22;59870;50.106;8.580;2022-09-09T16:54:15;23.70;72.30
11246;DHT22;59870;50.106;8.580;2022-09-09T16:56:45;23.70;72.10
11246;DHT22;59870;50.106;8.580;2022-09-09T16:59:22;23.60;72.10
11246;DHT22;59870;50.106;8.580;2022-09-09T17:01:51;24.00;72.40
11246;DHT22;59870;50.106;8.580;2022-09-09T17:04:21;23.60;72.30
11246;DHT22;59870;50.106;8.580;2022-09-09T17:06:52;24.20;72.20
11246;DHT22;59870;50.106;8.580;2022-09-09T17:09:21;23.50;72.00
11246;DHT22;59870;50.106;8.580;2022-09-09T17:11:49;23.50;71.30
11246;DHT22;59870;50.106;8.580;2022-09-09T17:14:19;24.00;72.00
11246;DHT22;59870;50.106;8.580;2022-09-09T17:16:47;24.20;72.40
11246;DHT22;59870;50.106;8.580;2022-09-09T17:19:15;23.50;71.90
11246;DHT22;59870;50.106;8.580;2022-09-09T17:21:42;23.50;72.20
11246;DHT22;59870;50.106;8.580;2022-09-09T17:24:30;23.40;72.50
11246;DHT22;59870;50.106;8.580;2022-09-09T17:26:57;23.40;72.10
11246;DHT22;59870;50.106;8.580;2022-09-09T17:29:25;23.40;72.60
11246;DHT22;59870;50.106;8.580;2022-09-09T17:31:53;23.40;72.90
11246;DHT22;59870;50.106;8.580;2022-09-09T17:34:22;23.30;73.90
11246;DHT22;59870;50.106;8.580;2022-09-09T17:36:50;23.30;74.10
11246;DHT22;59870;50.106;8.580;2022-09-09T17:39:17;23.60;74.30
11246;DHT22;59870;50.106;8.580;2022-09-09T17:41:44;23.50;74.50
11246;DHT22;59870;50.106;8.580;2022-09-09T17:44:12;23.80;74.80
11246;DHT22;59870;50.106;8.580;2022-09-09T17:46:41;23.20;74.70
11246;DHT22;59870;50.106;8.580;2022-09-09T17:49:15;23.80;75.80
11246;DHT22;59870;50.106;8.580;2022-09-09T17:51:43;23.70;74.90
11246;DHT22;59870;50.106;8.580;2022-09-09T17:54:14;23.70;74.70
11246;DHT22;59870;50.106;8.580;2022-09-09T17:56:42;23.70;75.50
11246;DHT22;59870;50.106;8.580;2022-09-09T17:59:11;23.70;75.40
11246;DHT22;59870;50.106;8.580;2022-09-09T18:01:41;23.70;75.30
11246;DHT22;59870;50.106;8.580;2022-09-09T18:04:11;23.00;75.40
11246;DHT22;59870;50.106;8.580;2022-09-09T18:06:42;23.00;75.70
11246;DHT22;59870;50.106;8.580;2022-09-09T18:09:15;23.00;75.90
11246;DHT22;59870;50.106;8.580;2022-09-09T18:11:45;23.50;77.00
11246;DHT22;59870;50.106;8.580;2022-09-09T18:14:16;22.90;77.30
11246;DHT22;59870;50.106;8.580;2022-09-09T18:16:47;23.60;79.00
11246;DHT22;59870;50.106;8.580;2022-09-09T18:19:18;22.90;76.60
11246;DHT22;59870;50.106;8.580;2022-09-09T18:21:46;23.30;77.70
11246;DHT22;59870;50.106;8.580;2022-09-09T18:24:15;22.80;77.10
11246;DHT22;59870;50.106;8.580;2022-09-09T18:26:44;22.80;76.80
11246;DHT22;59870;50.106;8.580;2022-09-09T18:29:14;23.00;77.50
11246;DHT22;59870;50.106;8.580;2022-09-09T18:31:41;22.80;78.20
11246;DHT22;59870;50.106;8.580;2022-09-09T18:34:11;22.70;78.30
11246;DHT22;59870;50.106;8.580;2022-09-09T18:36:43;23.30;79.40
11246;DHT22;59870;50.106;8.580;2022-09-09T18:39:12;22.70;79.50
11246;DHT22;59870;50.106;8.580;2022-09-09T18:41:49;23.20;81.30
11246;DHT22;59870;50.106;8.580;2022-09-09T18:44:21;22.60;81.30
11246;DHT22;59870;50.106;8.580;2022-09-09T18:46:49;22.60;82.20
11246;DHT22;59870;50.106;8.580;2022-09-09T18:49:19;23.10;82.90
11246;DHT22;59870;50.106;8.580;2022-09-09T18:51:47;22.90;82.50
11246;DHT22;59870;50.106;8.580;2022-09-09T18:54:21;22.90;82.20
11246;DHT22;59870;50.106;8.580;2022-09-09T18:56:48;22.40;80.60
11246;DHT22;59870;50.106;8.580;2022-09-09T18:59:18;22.50;79.90
11246;DHT22;59870;50.106;8.580;2022-09-09T19:01:52;22.80;80.40
11246;DHT22;59870;50.106;8.580;2022-09-09T19:04:36;22.80;79.60
11246;DHT22;59870;50.106;8.580;2022-09-09T19:07:03;22.40;77.80
11246;DHT22;59870;50.106;8.580;2022-09-09T19:09:31;22.40;77.70
11246;DHT22;59870;50.106;8.580;2022-09-09T19:12:00;22.30;77.40
11246;DHT22;59870;50.106;8.580;2022-09-09T19:14:28;22.30;76.90
11246;DHT22;59870;50.106;8.580;2022-09-09T19:16:57;22.20;78.40
11246;DHT22;59870;50.106;8.580;2022-09-09T19:19:27;22.20;78.30
11246;DHT22;59870;50.106;8.580;2022-09-09T19:21:55;22.10;78.40
11246;DHT22;59870;50.106;8.580;2022-09-09T19:24:30;22.10;79.30
11246;DHT22;59870;50.106;8.580;2022-09-09T19:27:00;22.10;80.10
11246;DHT22;59870;50.106;8.580;2022-09-09T19:29:30;22.40;80.90
11246;DHT22;59870;50.106;8.580;2022-09-09T19:32:00;22.00;81.20
11246;DHT22;59870;50.106;8.580;2022-09-09T19:34:49;21.90;81.40
11246;DHT22;59870;50.106;8.580;2022-09-09T19:37:18;22.30;82.50
11246;DHT22;59870;50.106;8.580;2022-09-09T19:40:02;22.20;81.70
11246;DHT22;59870;50.106;8.580;2022-09-09T19:43:16;21.80;82.00
11246;DHT22;59870;50.106;8.580;2022-09-09T19:47:23;21.70;83.00
11246;DHT22;59870;50.106;8.580;2022-09-09T19:50:17;21.10;83.00
11246;DHT22;59870;50.106;8.580;2022-09-09T19:52:45;21.80;84.40
11246;DHT22;59870;50.106;8.580;2022-09-09T19:55:13;21.40;84.80
11246;DHT22;59870;50.106;8.580;2022-09-09T19:57:41;21.40;85.90
11246;DHT22;59870;50.106;8.580;2022-09-09T20:00:32;21.40;86.00
11246;DHT22;59870;50.106;8.580;2022-09-09T20:03:12;21.40;85.50
11246;DHT22;59870;50.106;8.580;2022-09-09T20:05:47;21.30;85.20
11246;DHT22;59870;50.106;8.580;2022-09-09T20:08:15;21.70;86.70
11246;DHT22;59870;50.106;8.580;2022-09-09T20:10:50;21.20;85.80
11246;DHT22;59870;50.106;8.580;2022-09-09T20:13:20;21.20;86.20
11246;DHT22;59870;50.106;8.580;2022-09-09T20:16:02;21.50;86.80
11246;DHT22;59870;50.106;8.580;2022-09-09T20:18:33;21.10;86.80
11246;DHT22;59870;50.106;8.580;2022-09-09T20:24:45;21.00;87.60
11246;DHT22;59870;50.106;8.580;2022-09-09T20:27:40;21.50;88.40
11246;DHT22;59870;50.106;8.580;2022-09-09T20:30:12;21.00;88.60
11246;DHT22;59870;50.106;8.580;2022-09-09T20:33:06;21.00;88.40
11246;DHT22;59870;50.106;8.580;2022-09-09T20:36:48;21.00;88.40
11246;DHT22;59870;50.106;8.580;2022-09-09T20:52:12;20.60;88.30
11246;DHT22;59870;50.106;8.580;2022-09-09T20:58:58;20.70;89.20
11246;DHT22;59870;50.106;8.580;2022-09-09T21:06:50;20.10;88.00
11246;DHT22;59870;50.106;8.580;2022-09-09T21:13:01;20.50;89.50
11246;DHT22;59870;50.106;8.580;2022-09-09T21:15:59;20.50;88.90
11246;DHT22;59870;50.106;8.580;2022-09-09T21:18:44;20.40;89.70
11246;DHT22;59870;50.106;8.580;2022-09-09T21:22:29;20.80;89.60
11246;DHT22;59870;50.106;8.580;2022-09-09T21:29:19;20.30;90.20
11246;DHT22;59870;50.106;8.580;2022-09-09T21:36:35;19.80;90.20
11246;DHT22;59870;50.106;8.580;2022-09-09T21:39:53;19.90;90.10
11246;DHT22;59870;50.106;8.580;2022-09-09T21:43:08;19.80;90.60
11246;DHT22;59870;50.106;8.580;2022-09-09T21:45:44;20.20;90.60
11246;DHT22;59870;50.106;8.580;2022-09-09T21:48:33;19.70;90.70
11246;DHT22;59870;50.106;8.580;2022-09-09T21:51:49;19.90;90.80
11246;DHT22;59870;50.106;8.580;2022-09-09T21:54:31;20.20;91.00
11246;DHT22;59870;50.106;8.580;2022-09-09T22:13:20;20.00;91.50
11246;DHT22;59870;50.106;8.580;2022-09-09T22:15:53;19.90;91.40
11246;DHT22;59870;50.106;8.580;2022-09-09T22:21:52;19.70;91.40
11246;DHT22;59870;50.106;8.580;2022-09-09T22:24:21;19.90;91.50
11246;DHT22;59870;50.106;8.580;2022-09-09T22:26:57;19.50;91.30
11246;DHT22;59870;50.106;8.580;2022-09-09T22:32:36;19.80;92.00
11246;DHT22;59870;50.106;8.580;2022-09-09T22:36:02;19.80;91.90
11246;DHT22;59870;50.106;8.580;2022-09-09T22:39:31;19.40;91.80
11246;DHT22;59870;50.106;8.580;2022-09-09T22:42:15;19.70;92.20
11246;DHT22;59870;50.106;8.580;2022-09-09T23:07:23;19.30;92.20
11246;DHT22;59870;50.106;8.580;2022-09-09T23:09:53;19.20;92.20
11246;DHT22;59870;50.106;8.580;2022-09-09T23:12:58;19.60;92.70
11246;DHT22;59870;50.106;8.580;2022-09-09T23:19:06;19.60;93.00
11246;DHT22;59870;50.106;8.580;2022-09-09T23:21:41;19.50;93.00
11246;DHT22;59870;50.106;8.580;2022-09-09T23:45:00;19.00;92.90
11246;DHT22;59870;50.106;8.580;2022-09-09T23:51:16;19.00;93.20
11246;DHT22;59870;50.106;8.580;2022-09-09T23:53:47;19.00;93.10
11246;DHT22;59870;50.106;8.580;2022-09-09T23:56:20;19.40;93.50
